• Join FlightAware (Why Join?)
  • Login
  • US Flag 
01:34PM EDT


 

Airport Tracker/Info


-or-


 

Live Flight TrackerFlight Track Log ✈ WJA1875 ✈ 27-Jan-2014 ✈ PHLI / LIH - CYVR

Flight Track Log - Related Links

Times and Time Zones

All times are in EST time to prevent confusion due to time zone crossing. See the WJA1875 flight status page for this flight to view local times or setup timezone preferences in your user account.

Time Position Orientation Groundspeed Altitude Reporting Facility
EST Latitude Longitude Course Direction KTS MPH feet Rate Location/Type
04:41AM 21.9833 -159.3167 53° Northeast 130 150 1,300  Level Honolulu Center
04:42AM 22.0167 -159.2833 43° Northeast 200 230 3,100 2,100 Climbing Honolulu Center
04:43AM 22.0667 -159.2333 43° Northeast 250 288 5,600 2,700 Climbing Honolulu Center
04:44AM 22.1167 -159.1667 51° Northeast 280 322 8,600 2,580 Climbing Honolulu Center
04:45AM 22.1667 -159.1000 51° Northeast 310 357 10,800 2,400 Climbing Honolulu Center
04:46AM 22.2167 -159.0000 62° Northeast 350 403 13,500 2,340 Climbing Honolulu Center
04:47AM 22.4693 -158.5945 53° Northeast  Level FlightAware Approximate
04:47AM 22.2833 -158.9167 49° Northeast 380 437 15,600  Level Honolulu Center
04:48AM 22.3500 -158.8167 54° Northeast 420 483 17,500 2,100 Climbing Honolulu Center
04:49AM 22.4167 -158.7167 54° Northeast 450 518 19,800 2,220 Climbing Honolulu Center
04:50AM 22.4833 -158.6167 54° Northeast 460 529 22,000 2,040 Climbing Honolulu Center
04:51AM 22.5667 -158.5000 52° Northeast 460 529 23,900 1,680 Climbing Honolulu Center
04:52AM 22.6500 -158.3833 52° Northeast 480 552 25,400 1,440 Climbing Honolulu Center
04:53AM 22.7333 -158.2500 56° Northeast 490 564 26,900 1,320 Climbing Honolulu Center
04:54AM 22.8167 -158.1333 52° Northeast 500 575 28,100 1,140 Climbing Honolulu Center
04:55AM 22.9000 -158.0167 52° Northeast 510 587 29,200 1,080 Climbing Honolulu Center
04:56AM 22.9833 -157.8833 56° Northeast 530 610 30,300 1,200 Climbing Honolulu Center
04:57AM 23.0833 -157.7500 51° Northeast 530 610 31,600 1,140 Climbing Honolulu Center
04:58AM 23.1667 -157.6167 56° Northeast 540 621 32,600 1,080 Climbing Honolulu Center
04:59AM 23.2500 -157.4833 56° Northeast 550 633 33,800 1,140 Climbing Honolulu Center
05:00AM 23.3500 -157.3500 51° Northeast 550 633 35,000 540 Climbing Honolulu Center
05:01AM 23.4333 -157.2167 56° Northeast 550 633 35,000  Level Honolulu Center
05:02AM 23.5167 -157.0833 56° Northeast 550 633 35,000  Level Honolulu Center
05:03AM 23.6167 -156.9500 51° Northeast 550 633 35,000  Level Honolulu Center
05:04AM 23.7000 -156.8000 59° Northeast 550 633 35,000  Level Honolulu Center
05:05AM 23.8000 -156.6667 51° Northeast 550 633 35,000  Level Honolulu Center
05:06AM 23.8833 -156.5333 56° Northeast 550 633 35,000  Level Honolulu Center
05:07AM 23.9667 -156.4000 56° Northeast 540 621 35,000  Level Honolulu Center
05:19AM 24.7167 -155.2667 44° Northeast 561 646 35,000  Level Oakland Oceanic (ODAPS)
06:05AM 30.0500 -149.0833 47° Northeast 577 664 36,000  Climbing Oakland Oceanic (ODAPS)
06:52AM 35.0000 -142.3500 51° Northeast 562 647 36,000  Level Oakland Oceanic (ODAPS)
07:39AM 39.4167 -134.9667 37° Northeast 552 635 37,000  Climbing Oakland Oceanic (ODAPS)
08:19AM 44.1000 -129.9833 23° Northeast 504 580 37,000  Level Oakland Oceanic (ODAPS)
08:43AM 47.3219 -127.9219 51° Northeast 509 586 37,000  Level Seattle Center
08:44AM 47.4135 -127.8578 25° Northeast 504 580 37,000  Level FlightAware Transoceanic
08:44AM 47.4492 -127.8356 25° Northeast 506 582 37,000  Level Seattle Center
08:45AM 47.5401 -127.7708 25° Northeast 504 580 37,000  Level FlightAware Transoceanic
08:45AM 47.5756 -127.7492 25° Northeast 503 579 37,000  Level Seattle Center
08:46AM 47.6667 -127.6833 50° Northeast 504 580 37,000  Level FlightAware Transoceanic
08:46AM 47.6928 -127.6375 33° Northeast 510 587 37,000  Level Seattle Center
08:47AM 47.7527 -127.5280 51° Northeast 504 580 37,000  Level FlightAware Transoceanic
08:47AM 47.7869 -127.4717 50° Northeast 521 600 37,000  Level Seattle Center
08:48AM 47.8385 -127.3721 51° Northeast 504 580 37,000  Level FlightAware Transoceanic
08:48AM 47.8775 -127.3053 51° Northeast 522 601 37,000  Level Seattle Center
08:49AM 47.9697 -127.1381 50° Northeast 522 601 37,000  Level Seattle Center
08:50AM 48.0589 -126.9706 51° Northeast 519 597 37,000  Level Seattle Center
08:51AM 48.1494 -126.8039 51° Northeast 518 596 37,000  Level Seattle Center
08:52AM 48.2406 -126.6356 51° Northeast 518 596 37,000  Level Seattle Center
08:53AM 48.3303 -126.4658 51° Northeast 520 598 37,000 -1,200 Level Seattle Center
08:54AM 48.4200 -126.2947 52° Northeast 521 600 34,600 -2,640 Descending Seattle Center
08:55AM 48.5031 -126.1153 55° Northeast 522 601 31,800 -2,520 Descending Seattle Center
08:56AM 48.5667 -125.9167 64° Northeast 510 587 29,400 -2,280 Descending Vancouver Center
08:57AM 48.6333 -125.7500 59° Northeast 490 564 27,100 -2,220 Descending Vancouver Center
08:58AM 48.7000 -125.6000 56° Northeast 470 541 25,000 -2,100 Descending Vancouver Center
08:59AM 48.8000 -125.4167 50° Northeast 460 529 22,900 -2,040 Descending Vancouver Center
09:00AM 48.8500 -125.2667 63° Northeast 440 506 21,000 -1,980 Descending Vancouver Center
09:01AM 48.9167 -125.1167 56° Northeast 430 495 19,000 -1,800 Descending Vancouver Center
09:02AM 48.9833 -124.9667 56° Northeast 410 472 17,400 -1,920 Descending Vancouver Center
09:03AM 49.0333 -124.8167 63° Northeast 410 472 15,200 -2,220 Descending Vancouver Center
09:04AM 49.0833 -124.6667 63° Northeast 400 460 13,000 -2,100 Descending Vancouver Center
09:05AM 49.1167 -124.5333 69° East 390 449 11,100 -1,500 Descending Vancouver Center
09:06AM 49.1667 -124.3833 63° Northeast 360 414 10,100 -1,080 Descending Vancouver Center
09:07AM 49.2000 -124.2667 66° East 320 368 9,000 -1,020 Descending Vancouver Center
09:08AM 49.2333 -124.1500 66° East 290 334 8,100 -900 Descending Vancouver Center
09:09AM 49.2500 -124.0333 78° East 280 322 7,200 -780 Descending Vancouver Center
09:10AM 49.2500 -123.9333 90° East 270 311 6,600 -900 Descending Vancouver Center
09:11AM 49.2333 -123.8167 102° East 270 311 5,500 -840 Descending Vancouver Center
09:12AM 49.2167 -123.7167 104° East 250 288 5,000 -300 Descending Vancouver Center
09:13AM 49.2167 -123.6167 90° East 230 265 4,900 -300 Descending Vancouver Center
09:14AM 49.2000 -123.5167 104° East 210 242 4,400 -840 Descending Vancouver Center
09:15AM 49.2000 -123.4333 90° East 200 230 3,300 -1,080 Descending Vancouver Center
09:16AM 49.1833 -123.3667 111° Southeast 170 196 2,300 -900 Descending Vancouver Center
09:17AM 49.1833 -123.3167 90° East 140 161 1,600 -780 Descending Vancouver Center
09:18AM 49.1833 -123.2667 90° East 140 161 800 -780 Descending Vancouver Center
09:19AM 49.1667 -123.2167 117° Southeast 140 161 100 -720 Descending Vancouver Center